Time;durP1;ratioP1;P1;durP2;ratioP2;P2;SDS_P1;SDS_P2;PMS_P1;PMS_P2;Temp;Humidity;BMP_temperature;BMP_pressure;BME280_temperature;BME280_humidity;BME280_pressure;Samples;Min_cycle;Max_cycle;Signal;HPM_P1;HPM_P2
2023/04/30 00:01:20;;;;;;;10.80;10.20;;;;;;;-145.94;61.40;78064.81;5094122;28;20182;-68
2023/04/30 00:03:47;;;;;;;9.80;9.27;;;;;;;-145.94;61.22;78066.84;5094378;28;20178;-68
2023/04/30 00:06:13;;;;;;;11.87;10.83;;;;;;;-145.94;61.53;78066.84;5093600;28;20706;-68
2023/04/30 00:08:40;;;;;;;10.43;9.67;;;;;;;-145.94;61.57;78083.19;5093758;28;20194;-68
2023/04/30 00:11:06;;;;;;;9.60;9.03;;;;;;;-145.94;61.43;78097.47;5093722;28;20196;-68
2023/04/30 00:13:33;;;;;;;9.97;9.43;;;;;;;-145.94;61.32;78111.72;5093655;28;20225;-68
2023/04/30 00:15:59;;;;;;;11.33;10.43;;;;;;;-145.94;61.46;78126.00;5093723;28;20212;-68
2023/04/30 00:18:26;;;;;;;11.30;10.60;;;;;;;-145.94;61.31;78144.38;5093700;28;20195;-68
2023/04/30 00:20:52;;;;;;;11.57;10.87;;;;;;;-145.94;61.42;78156.59;5093948;28;20265;-68
2023/04/30 00:23:19;;;;;;;10.10;9.30;;;;;;;-145.94;61.95;78170.88;5093784;28;20683;-68
2023/04/30 00:25:45;;;;;;;10.87;10.00;;;;;;;-145.94;61.95;78181.09;5093348;28;20210;-68
2023/04/30 00:28:11;;;;;;;12.57;11.50;;;;;;;-145.94;62.42;78185.16;5093608;28;20654;-68
2023/04/30 00:30:38;;;;;;;10.00;9.47;;;;;;;-145.94;62.37;78189.25;5093683;28;20192;-68
2023/04/30 00:33:04;;;;;;;10.37;9.57;;;;;;;-145.94;62.39;78199.44;5075323;28;20209;-68
2023/04/30 00:35:31;;;;;;;11.47;10.50;;;;;;;-145.94;62.49;78203.53;5093359;28;20213;-68
2023/04/30 00:37:57;;;;;;;11.07;10.13;;;;;;;-145.94;62.83;78199.44;5092139;28;20196;-68
2023/04/30 00:40:23;;;;;;;9.20;8.63;;;;;;;-145.94;62.63;78207.59;5093308;28;20675;-68
2023/04/30 00:42:52;;;;;;;11.10;10.20;;;;;;;-145.94;62.72;78207.59;5096002;28;20191;-68
2023/04/30 00:45:20;;;;;;;10.73;9.90;;;;;;;-145.94;62.96;78217.81;5082621;28;20212;-68
2023/04/30 00:47:47;;;;;;;10.17;9.57;;;;;;;-145.94;62.98;78219.84;5100140;28;20679;-69
2023/04/30 00:50:15;;;;;;;12.20;11.13;;;;;;;-145.94;63.05;78217.81;5100090;28;20188;-69
2023/04/30 00:52:43;;;;;;;12.13;11.17;;;;;;;-145.94;63.22;78234.13;5100242;28;20177;-69
2023/04/30 00:55:12;;;;;;;11.30;10.40;;;;;;;-145.94;63.24;78236.16;5100447;28;20189;-69
2023/04/30 00:57:39;;;;;;;11.70;10.80;;;;;;;-145.94;63.04;78246.38;5100176;28;20178;-69
2023/04/30 01:00:09;;;;;;;11.53;10.87;;;;;;;-145.94;63.51;78252.47;5081704;28;20276;-69
2023/04/30 01:02:36;;;;;;;10.73;10.13;;;;;;;-145.94;63.61;78254.53;5081672;28;20280;-69
2023/04/30 01:05:03;;;;;;;11.00;10.20;;;;;;;-145.94;63.59;78266.75;5100095;28;20235;-68
2023/04/30 01:07:32;;;;;;;11.33;10.73;;;;;;;-145.94;63.66;78266.75;5100336;28;20582;-69
2023/04/30 01:09:59;;;;;;;11.73;10.93;;;;;;;-145.94;63.82;78268.81;5099791;28;20276;-69
2023/04/30 01:12:42;;;;;;;10.43;9.63;;;;;;;-145.94;63.75;78268.81;5081663;28;20594;-69
2023/04/30 01:15:30;;;;;;;12.73;11.63;;;;;;;-145.94;64.12;78270.84;5100041;28;20215;-68
2023/04/30 01:18:09;;;;;;;11.47;10.77;;;;;;;-145.94;64.17;78266.75;5100368;28;20172;-68
2023/04/30 01:20:40;;;;;;;11.53;10.70;;;;;;;-145.94;64.26;78270.84;5100259;28;20181;-68
2023/04/30 01:23:18;;;;;;;11.37;10.63;;;;;;;-145.94;64.35;78276.97;5100016;28;20174;-68
2023/04/30 01:26:06;;;;;;;11.37;10.53;;;;;;;-145.94;64.47;78285.13;5081546;28;20241;-68
2023/04/30 01:28:35;;;;;;;12.20;11.33;;;;;;;-145.94;64.45;78287.16;5081484;28;20207;-68
2023/04/30 01:31:02;;;;;;;13.40;12.23;;;;;;;-145.94;64.70;78291.25;5081787;28;20236;-68
2023/04/30 01:33:28;;;;;;;14.40;10.73;;;;;;;-145.94;64.54;78297.38;5100212;28;20192;-68
2023/04/30 01:36:16;;;;;;;12.83;11.70;;;;;;;-145.94;64.56;78311.63;5081379;28;20242;-68
2023/04/30 01:38:48;;;;;;;12.43;11.33;;;;;;;-145.94;64.62;78319.81;5100252;28;20190;-68
2023/04/30 01:41:30;;;;;;;14.17;12.90;;;;;;;-145.94;64.91;78319.81;5098591;28;20186;-68
2023/04/30 01:44:05;;;;;;;12.80;11.70;;;;;;;-145.94;65.15;78317.75;5100294;28;20184;-68
2023/04/30 01:46:31;;;;;;;13.90;12.60;;;;;;;-145.94;65.36;78309.59;5082519;28;20221;-68
2023/04/30 01:49:13;;;;;;;12.93;12.00;;;;;;;-145.94;65.77;78305.53;5081590;28;20194;-68
2023/04/30 01:51:41;;;;;;;14.33;12.67;;;;;;;-145.94;65.82;78299.41;5099874;28;20556;-68
2023/04/30 01:54:21;;;;;;;13.30;11.90;;;;;;;-145.94;65.86;78317.75;5098139;28;20193;-68
2023/04/30 01:56:56;;;;;;;12.23;11.33;;;;;;;-145.94;65.92;78309.59;5096532;28;20643;-68
2023/04/30 01:59:23;;;;;;;12.57;11.63;;;;;;;-145.94;65.87;78319.81;5078647;28;20203;-68
2023/04/30 02:01:50;;;;;;;13.43;12.07;;;;;;;-145.94;65.85;78325.91;5078093;28;20616;-68
2023/04/30 02:04:16;;;;;;;12.93;11.57;;;;;;;-145.94;66.03;78336.13;5077957;28;20201;-68
2023/04/30 02:06:42;;;;;;;13.43;12.17;;;;;;;-145.94;65.94;78348.38;5095932;28;20206;-68
2023/04/30 02:09:11;;;;;;;13.10;12.10;;;;;;;-145.94;66.00;78350.41;5077864;28;20248;-68
2023/04/30 02:11:37;;;;;;;11.37;10.67;;;;;;;-145.94;66.00;78354.47;5095955;28;20273;-68
2023/04/30 02:14:04;;;;;;;12.07;11.37;;;;;;;-145.94;66.00;78354.47;5095925;28;20190;-68
2023/04/30 02:16:31;;;;;;;13.10;11.97;;;;;;;-145.94;66.01;78360.59;5095756;28;20695;-68
2023/04/30 02:18:58;;;;;;;13.40;12.20;;;;;;;-145.94;66.20;78354.47;5077983;28;20194;-68
2023/04/30 02:21:24;;;;;;;14.63;13.33;;;;;;;-145.94;66.33;78356.53;5077911;28;20289;-68
2023/04/30 02:23:51;;;;;;;14.73;12.60;;;;;;;-145.94;66.36;78348.38;5095681;28;20186;-68
2023/04/30 02:26:17;;;;;;;14.07;12.63;;;;;;;-145.94;66.27;78348.38;5095725;28;20214;-68
2023/04/30 02:28:43;;;;;;;14.00;12.67;;;;;;;-145.94;66.55;78344.28;5077401;28;20228;-68
2023/04/30 02:31:10;;;;;;;14.33;12.50;;;;;;;-145.94;66.75;78346.31;5095618;28;20182;-68
2023/04/30 02:33:36;;;;;;;14.23;13.00;;;;;;;-145.94;66.87;78338.16;5095818;28;20241;-68
2023/04/30 02:36:03;;;;;;;14.37;12.83;;;;;;;-145.94;66.94;78332.03;5077525;28;20767;-68
2023/04/30 02:38:29;;;;;;;13.73;12.37;;;;;;;-145.94;67.27;78334.09;5077295;28;20289;-68
2023/04/30 02:40:56;;;;;;;15.40;12.53;;;;;;;-145.94;67.23;78332.03;5095664;28;20186;-68
2023/04/30 02:43:22;;;;;;;14.87;13.63;;;;;;;-145.94;67.31;78319.81;5095340;28;20190;-68
2023/04/30 02:45:49;;;;;;;14.60;12.70;;;;;;;-145.94;67.79;78319.81;5095747;28;20209;-68
2023/04/30 02:48:15;;;;;;;14.40;13.20;;;;;;;-145.94;67.45;78313.69;5093902;28;20210;-68
2023/04/30 02:50:41;;;;;;;13.67;12.57;;;;;;;-145.94;67.54;78313.69;5095770;28;20182;-68
2023/04/30 02:53:08;;;;;;;13.90;12.73;;;;;;;-145.94;67.49;78321.84;5077078;28;20221;-68
2023/04/30 02:55:34;;;;;;;16.07;14.60;;;;;;;-145.94;67.52;78327.97;5095548;28;20241;-68
2023/04/30 02:58:00;;;;;;;16.20;14.43;;;;;;;-145.94;67.78;78332.03;5095059;28;20184;-68
2023/04/30 03:00:27;;;;;;;15.67;14.20;;;;;;;-145.94;67.69;78334.09;5095036;28;20284;-68
2023/04/30 03:02:53;;;;;;;16.03;14.07;;;;;;;-145.94;67.51;78323.88;5094954;28;20229;-68
2023/04/30 03:05:20;;;;;;;19.60;16.47;;;;;;;-145.94;67.75;78327.97;5095246;28;20202;-68
2023/04/30 03:07:46;;;;;;;18.60;15.63;;;;;;;-145.94;67.63;78334.09;5095098;28;20579;-68
2023/04/30 03:10:13;;;;;;;15.70;14.20;;;;;;;-145.94;67.65;78336.13;5094828;28;20290;-68
2023/04/30 03:12:39;;;;;;;17.23;15.53;;;;;;;-145.94;67.81;78352.44;5076694;28;20194;-69
2023/04/30 03:15:07;;;;;;;17.53;15.63;;;;;;;-145.94;67.79;78348.38;5095192;28;20269;-68
2023/04/30 03:17:34;;;;;;;23.30;16.70;;;;;;;-145.94;67.86;78352.44;5095041;28;20540;-68
2023/04/30 03:20:01;;;;;;;27.33;19.77;;;;;;;-145.94;67.84;78358.56;5094636;28;20610;-68
2023/04/30 03:22:27;;;;;;;18.33;16.20;;;;;;;-145.94;68.08;78356.53;5094697;28;20190;-68
2023/04/30 03:24:54;;;;;;;17.77;15.77;;;;;;;-145.94;68.07;78354.47;5094794;28;20194;-68
2023/04/30 03:27:20;;;;;;;15.23;13.93;;;;;;;-145.94;67.92;78354.47;5094251;28;20590;-68
2023/04/30 03:29:47;;;;;;;16.30;14.67;;;;;;;-145.94;68.01;78366.72;5094738;28;20568;-68
2023/04/30 03:32:14;;;;;;;21.27;15.67;;;;;;;-145.94;68.36;78368.75;5094418;28;20178;-68
2023/04/30 03:34:40;;;;;;;19.47;15.93;;;;;;;-145.94;68.19;78370.81;5094901;28;20193;-68
2023/04/30 03:37:06;;;;;;;18.23;16.00;;;;;;;-145.94;68.02;78364.69;5094287;28;20202;-68
2023/04/30 03:39:33;;;;;;;18.07;15.40;;;;;;;-145.94;68.12;78372.84;5076087;28;20281;-68
2023/04/30 03:42:02;;;;;;;15.83;14.33;;;;;;;-145.94;68.00;78362.63;5094249;28;20198;-68
2023/04/30 03:44:28;;;;;;;19.53;15.13;;;;;;;-145.94;68.00;78364.69;5076054;28;20225;-68
2023/04/30 03:46:54;;;;;;;15.33;13.83;;;;;;;-145.94;67.98;78362.63;5075854;28;20263;-68
2023/04/30 03:49:21;;;;;;;17.27;14.63;;;;;;;-145.94;68.00;78356.53;5094090;28;20193;-68
2023/04/30 03:51:47;;;;;;;16.00;13.80;;;;;;;-145.94;67.97;78360.59;5075920;28;20280;-68
2023/04/30 03:54:14;;;;;;;15.60;14.07;;;;;;;-145.94;68.04;78362.63;5094341;28;20193;-68
2023/04/30 03:56:40;;;;;;;14.93;13.63;;;;;;;-145.94;68.06;78370.81;5075780;28;20671;-68
2023/04/30 03:59:07;;;;;;;16.17;14.43;;;;;;;-145.94;67.91;78372.84;5075800;28;20196;-68
2023/04/30 04:01:33;;;;;;;15.57;14.03;;;;;;;-145.94;67.96;78389.16;5075774;28;20197;-68
2023/04/30 04:04:00;;;;;;;18.07;13.60;;;;;;;-145.94;67.97;78393.25;5075670;28;20201;-68
2023/04/30 04:06:27;;;;;;;16.27;14.60;;;;;;;-145.94;68.23;78389.16;5092408;28;20609;-68
2023/04/30 04:08:53;;;;;;;17.17;15.43;;;;;;;-145.94;68.14;78391.19;5075617;28;20565;-68
2023/04/30 04:11:21;;;;;;;14.73;13.37;;;;;;;-145.94;68.13;78393.25;5075933;28;20200;-69
2023/04/30 04:13:47;;;;;;;16.13;14.47;;;;;;;-145.94;68.32;78401.41;5075557;28;20694;-69
2023/04/30 04:16:14;;;;;;;15.20;13.60;;;;;;;-145.94;68.39;78399.34;5075424;28;20231;-68
2023/04/30 04:18:41;;;;;;;18.20;14.13;;;;;;;-145.94;68.43;78401.41;5075005;28;20186;-68
2023/04/30 04:21:07;;;;;;;16.80;15.10;;;;;;;-145.94;68.45;78399.34;5075512;28;20190;-68
2023/04/30 04:23:34;;;;;;;13.97;12.80;;;;;;;-145.94;68.47;78401.41;5075753;28;20186;-68
2023/04/30 04:26:00;;;;;;;15.90;14.27;;;;;;;-145.94;68.17;78399.34;5093427;28;20232;-68
2023/04/30 04:28:27;;;;;;;18.70;14.40;;;;;;;-145.94;68.20;78409.56;5092112;28;20245;-68
2023/04/30 04:30:54;;;;;;;14.67;13.23;;;;;;;-145.94;68.36;78405.47;5075323;28;20250;-68
2023/04/30 04:33:20;;;;;;;16.17;14.50;;;;;;;-145.94;68.38;78405.47;5075331;28;20193;-68
2023/04/30 04:35:46;;;;;;;17.87;15.63;;;;;;;-145.94;68.21;78409.56;5093622;28;20276;-68
2023/04/30 04:38:13;;;;;;;16.63;14.93;;;;;;;-145.94;68.39;78405.47;5075305;28;20639;-68
2023/04/30 04:40:40;;;;;;;19.87;15.47;;;;;;;-145.94;68.58;78411.59;5075277;28;20185;-68
2023/04/30 04:43:06;;;;;;;25.90;15.33;;;;;;;-145.94;68.88;78407.53;5093319;28;20196;-68
2023/04/30 04:45:32;;;;;;;19.27;15.57;;;;;;;-145.94;68.82;78397.31;5093275;28;20202;-68
2023/04/30 04:47:59;;;;;;;17.53;15.57;;;;;;;-145.94;68.89;78393.25;5075108;28;20236;-68
2023/04/30 04:50:26;;;;;;;21.87;17.00;;;;;;;-145.94;69.01;78378.97;5075217;28;20663;-68
2023/04/30 04:52:52;;;;;;;19.83;15.63;;;;;;;-145.94;68.99;78376.91;5075203;28;20190;-68
2023/04/30 04:55:19;;;;;;;25.90;18.93;;;;;;;-145.94;69.06;78366.72;5075088;28;20217;-68
2023/04/30 04:57:45;;;;;;;18.97;17.00;;;;;;;-145.94;69.08;78364.69;5093480;28;20257;-68
2023/04/30 05:00:12;;;;;;;24.93;17.07;;;;;;;-145.94;69.13;78354.47;5075095;28;20190;-68
2023/04/30 05:02:39;;;;;;;22.50;17.50;;;;;;;-145.94;69.08;78346.31;5093246;28;20217;-68
2023/04/30 05:05:06;;;;;;;27.10;17.80;;;;;;;-145.94;68.82;78338.16;5092048;28;20208;-68
2023/04/30 05:07:34;;;;;;;22.90;18.20;;;;;;;-145.94;69.10;78340.19;5091779;28;20206;-68
2023/04/30 05:10:01;;;;;;;22.80;17.60;;;;;;;-145.94;68.59;78321.84;5075443;28;20664;-68
2023/04/30 05:12:27;;;;;;;24.73;17.97;;;;;;;-145.94;68.69;78313.69;5093095;28;20182;-68
2023/04/30 05:14:53;;;;;;;33.23;17.93;;;;;;;-145.94;68.43;78301.44;5093075;28;20186;-68
2023/04/30 05:17:20;;;;;;;22.13;17.90;;;;;;;-145.94;68.44;78301.44;5093784;28;20201;-69
2023/04/30 05:19:49;;;;;;;21.00;17.67;;;;;;;-145.94;68.04;78293.28;5093555;28;20192;-69
2023/04/30 05:22:16;;;;;;;22.07;17.90;;;;;;;-145.94;68.12;78281.03;5093148;28;20670;-69
2023/04/30 05:24:42;;;;;;;25.10;18.93;;;;;;;-145.94;67.83;78266.75;5093548;28;20190;-69
2023/04/30 05:27:09;;;;;;;26.60;18.20;;;;;;;-145.94;67.64;78264.72;5092726;28;20594;-68
2023/04/30 05:29:35;;;;;;;30.57;18.60;;;;;;;-145.94;67.64;78256.56;5093602;28;20178;-68
2023/04/30 05:32:02;;;;;;;20.23;17.83;;;;;;;-145.94;67.42;78250.44;5097303;28;20207;-68
2023/04/30 05:34:28;;;;;;;19.27;16.93;;;;;;;-145.94;67.36;78240.25;5096645;28;20189;-68
2023/04/30 05:36:55;;;;;;;23.97;17.77;;;;;;;-145.94;67.46;78234.13;5096771;28;20210;-68
2023/04/30 05:39:21;;;;;;;18.77;16.83;;;;;;;-145.94;67.31;78219.84;5097131;28;20197;-68
2023/04/30 05:41:47;;;;;;;27.70;17.87;;;;;;;-145.94;67.11;78205.56;5096554;28;20193;-68
2023/04/30 05:44:14;;;;;;;22.13;17.57;;;;;;;-145.94;66.95;78191.28;5096509;28;20177;-68
2023/04/30 05:46:41;;;;;;;20.23;17.70;;;;;;;-145.94;66.89;78179.06;5096380;28;20212;-69
2023/04/30 05:49:07;;;;;;;19.40;17.07;;;;;;;-145.94;66.63;78166.81;5096353;28;20209;-69
2023/04/30 05:51:33;;;;;;;20.47;18.17;;;;;;;-145.94;66.01;78156.59;5096610;28;20273;-69
2023/04/30 05:54:00;;;;;;;22.63;17.53;;;;;;;-145.94;65.70;78144.38;5096329;28;20189;-69
2023/04/30 05:56:26;;;;;;;18.53;16.60;;;;;;;-145.94;65.85;78144.38;5096476;28;20213;-68
2023/04/30 05:58:53;;;;;;;22.10;16.97;;;;;;;-145.94;65.51;78130.09;5097023;28;20185;-68
2023/04/30 06:01:20;;;;;;;21.77;16.73;;;;;;;-145.94;65.13;78121.94;5096175;28;20184;-68
2023/04/30 06:03:46;;;;;;;21.77;17.27;;;;;;;-145.94;65.06;78109.69;5096699;28;20265;-68
2023/04/30 06:06:12;;;;;;;18.63;16.17;;;;;;;-145.94;65.24;78095.41;5096192;28;20276;-68
2023/04/30 06:08:43;;;;;;;19.80;15.87;;;;;;;-145.94;64.67;78079.09;5096218;28;20566;-69
2023/04/30 06:11:12;;;;;;;17.73;15.87;;;;;;;-145.94;63.89;78087.25;5096292;28;20656;-69
2023/04/30 06:13:39;;;;;;;18.97;16.17;;;;;;;-145.94;63.66;78066.84;5096183;28;20201;-69
2023/04/30 06:16:07;;;;;;;19.03;15.70;;;;;;;-145.94;63.79;78070.94;5096012;28;20205;-68
2023/04/30 06:18:34;;;;;;;22.37;15.60;;;;;;;-145.94;63.74;78060.75;5095770;28;20651;-69
2023/04/30 06:21:00;;;;;;;16.43;14.50;;;;;;;-145.94;63.78;78050.53;5095812;28;20189;-70
2023/04/30 06:23:27;;;;;;;16.97;15.20;;;;;;;-145.94;63.24;78054.63;5096106;28;20178;-69
2023/04/30 06:25:53;;;;;;;17.33;15.40;;;;;;;-145.94;62.75;78044.41;5095664;28;20212;-69
2023/04/30 06:28:20;;;;;;;15.10;13.70;;;;;;;-145.94;62.73;78021.97;5095581;28;20578;-69
2023/04/30 06:30:46;;;;;;;16.60;14.93;;;;;;;-145.94;63.17;78001.59;5095967;28;20177;-68
2023/04/30 06:33:12;;;;;;;22.90;15.17;;;;;;;-145.94;61.88;78001.59;5095622;28;20208;-69
2023/04/30 06:35:39;;;;;;;14.63;13.20;;;;;;;-145.94;61.99;77989.34;5095768;28;20564;-68
2023/04/30 06:38:05;;;;;;;18.60;14.00;;;;;;;-145.94;61.46;77981.19;5095427;28;20184;-69
2023/04/30 06:40:32;;;;;;;15.23;13.73;;;;;;;-145.94;60.94;77989.34;5094976;28;20231;-70
2023/04/30 06:42:58;;;;;;;19.23;14.00;;;;;;;-145.94;61.14;77956.72;5095640;28;20192;-69
2023/04/30 06:45:25;;;;;;;14.23;12.93;;;;;;;-145.94;61.58;77944.47;5077053;28;20218;-69
2023/04/30 06:47:52;;;;;;;16.00;14.17;;;;;;;-145.94;60.42;77952.63;5095193;28;20209;-70
2023/04/30 06:50:20;;;;;;;18.13;13.97;;;;;;;-145.94;60.46;77934.28;5095770;28;20204;-70
2023/04/30 06:52:46;;;;;;;13.97;12.50;;;;;;;-145.94;60.37;77913.88;5095410;28;20189;-70
2023/04/30 06:55:13;;;;;;;13.27;12.13;;;;;;;-145.94;59.94;77891.44;5095565;28;20273;-69
2023/04/30 06:57:40;;;;;;;15.43;14.03;;;;;;;-145.94;59.26;77893.47;5095104;28;20214;-70
2023/04/30 07:00:07;;;;;;;15.13;13.63;;;;;;;-145.94;59.15;77881.25;5095600;28;20662;-70
2023/04/30 07:02:34;;;;;;;14.10;12.87;;;;;;;-145.94;59.11;77871.03;5094972;28;20217;-70
2023/04/30 07:05:01;;;;;;;13.83;12.70;;;;;;;-145.94;58.80;77854.72;5095477;28;20686;-69
2023/04/30 07:07:27;;;;;;;16.97;13.57;;;;;;;-145.94;58.80;77856.75;5095075;28;20561;-70
2023/04/30 07:09:54;;;;;;;15.00;13.00;;;;;;;-145.94;59.06;77820.06;5094879;28;20186;-70
2023/04/30 07:12:21;;;;;;;13.83;12.53;;;;;;;-145.94;58.58;77797.63;5095321;28;20213;-70
2023/04/30 07:14:47;;;;;;;13.67;11.87;;;;;;;-145.94;58.18;77775.19;5094782;28;20189;-70
2023/04/30 07:17:14;;;;;;;12.77;11.67;;;;;;;-145.94;57.76;77756.81;5094638;28;20236;-70
2023/04/30 07:19:40;;;;;;;13.73;12.73;;;;;;;-145.94;57.76;77750.69;5094687;28;20186;-70
2023/04/30 07:22:06;;;;;;;11.50;10.60;;;;;;;-145.94;56.53;77744.59;5094616;28;20190;-70
2023/04/30 07:24:33;;;;;;;10.63;9.87;;;;;;;-145.94;56.60;77730.31;5094553;28;20274;-68
2023/04/30 07:27:02;;;;;;;11.67;10.93;;;;;;;-145.94;56.19;77732.34;5094586;28;20209;-69
2023/04/30 07:29:29;;;;;;;11.47;10.70;;;;;;;-145.94;56.19;77724.19;5094561;28;20206;-69
2023/04/30 07:31:55;;;;;;;14.13;11.30;;;;;;;-145.94;56.34;77701.75;5094412;28;20721;-70
2023/04/30 07:34:22;;;;;;;11.63;10.60;;;;;;;-145.94;56.05;77679.31;5095084;28;20193;-69
2023/04/30 07:36:49;;;;;;;11.63;10.73;;;;;;;-145.94;56.81;77642.59;5094617;28;20567;-69
2023/04/30 07:39:16;;;;;;;11.53;10.73;;;;;;;-145.94;55.77;77612.00;5094313;28;20647;-69
2023/04/30 07:41:43;;;;;;;11.20;10.20;;;;;;;-145.94;54.36;77597.72;5094787;28;20186;-69
2023/04/30 07:44:10;;;;;;;10.37;9.67;;;;;;;-145.94;53.79;77595.69;5094985;28;20641;-70
2023/04/30 07:46:37;;;;;;;11.33;10.53;;;;;;;-145.94;53.29;77599.78;5094235;28;20210;-70
2023/04/30 07:49:03;;;;;;;10.67;9.97;;;;;;;-145.94;53.93;77605.88;5094534;28;20671;-69
2023/04/30 07:51:31;;;;;;;10.23;9.63;;;;;;;-145.94;54.43;77595.69;5094225;28;20182;-69
2023/04/30 07:53:59;;;;;;;10.60;9.87;;;;;;;-145.94;53.66;77579.38;5093412;28;20194;-69
2023/04/30 07:56:26;;;;;;;9.27;8.73;;;;;;;-145.94;52.40;77579.38;5094163;28;20617;-70
2023/04/30 07:58:52;;;;;;;9.70;8.77;;;;;;;-145.94;52.92;77577.34;5094159;28;20177;-69
2023/04/30 08:01:19;;;;;;;9.67;9.13;;;;;;;-145.94;53.16;77575.28;5093914;28;20671;-69
2023/04/30 08:03:45;;;;;;;8.80;8.30;;;;;;;-145.94;53.27;77552.84;5094010;28;20559;-69
2023/04/30 08:06:12;;;;;;;9.60;8.73;;;;;;;-145.94;52.97;77544.69;5094318;28;20301;-69
2023/04/30 08:08:38;;;;;;;9.33;8.40;;;;;;;-145.94;52.80;77524.31;5093916;28;20600;-69
2023/04/30 08:11:05;;;;;;;9.17;8.70;;;;;;;-145.94;52.28;77524.31;5093659;28;20269;-70
2023/04/30 08:13:31;;;;;;;9.03;8.63;;;;;;;-145.94;51.79;77501.88;5093755;28;20192;-70
2023/04/30 08:15:57;;;;;;;8.90;8.40;;;;;;;-145.94;51.48;77503.91;5093794;28;20213;-70
2023/04/30 08:18:24;;;;;;;8.33;7.60;;;;;;;-145.94;51.08;77510.03;5094201;28;20178;-69
2023/04/30 08:20:50;;;;;;;8.27;7.87;;;;;;;-145.94;52.33;77487.59;5093811;28;20181;-69
2023/04/30 08:23:17;;;;;;;8.93;8.40;;;;;;;-145.94;51.08;77489.63;5093593;28;20204;-69
2023/04/30 08:25:43;;;;;;;10.37;7.90;;;;;;;-145.94;51.19;77465.16;5093491;28;20202;-69
2023/04/30 08:28:09;;;;;;;9.17;8.50;;;;;;;-145.94;50.50;77448.84;5093464;28;20232;-69
2023/04/30 08:30:36;;;;;;;9.10;8.70;;;;;;;-145.94;50.71;77438.66;5093708;28;20213;-69
2023/04/30 08:33:02;;;;;;;6.60;6.50;;;;;;;-145.94;51.02;77436.59;5093517;28;20189;-69
2023/04/30 08:35:28;;;;;;;9.10;8.50;;;;;;;-145.94;49.61;77430.50;5093640;28;20297;-69
2023/04/30 08:37:55;;;;;;;8.93;8.07;;;;;;;-145.94;49.62;77418.25;5093421;28;20186;-69
2023/04/30 08:40:21;;;;;;;7.70;7.27;;;;;;;-145.94;49.95;77408.06;5093361;28;20186;-69
2023/04/30 08:43:08;;;;;;;8.47;7.93;;;;;;;-145.94;49.93;77397.84;5093852;28;20213;-69
2023/04/30 08:45:38;;;;;;;7.07;6.83;;;;;;;-145.94;48.68;77401.94;5093527;28;20210;-69
2023/04/30 08:48:10;;;;;;;6.67;6.37;;;;;;;-145.94;49.88;77387.66;5093142;28;20220;-69
2023/04/30 08:50:36;;;;;;;9.53;7.27;;;;;;;-145.94;49.15;77401.94;5093363;28;20182;-70
2023/04/30 08:53:03;;;;;;;7.03;6.77;;;;;;;-145.94;48.53;77397.84;5093497;28;20632;-69
2023/04/30 08:55:33;;;;;;;8.13;7.63;;;;;;;-145.94;49.15;77383.59;5093697;28;20219;-69
2023/04/30 08:57:59;;;;;;;7.77;7.47;;;;;;;-145.94;48.75;77357.06;5093473;28;20615;-69
2023/04/30 09:00:26;;;;;;;7.00;6.60;;;;;;;-145.94;48.03;77344.84;5093447;28;20174;-69
2023/04/30 09:02:52;;;;;;;6.00;5.80;;;;;;;-145.94;48.35;77324.44;5093460;28;20194;-69
2023/04/30 09:05:19;;;;;;;7.77;7.43;;;;;;;-145.94;47.88;77304.03;5097123;28;20237;-69
2023/04/30 09:07:46;;;;;;;5.70;5.50;;;;;;;-145.94;48.19;77287.72;5097733;28;20302;-69
2023/04/30 09:10:20;;;;;;;6.73;6.37;;;;;;;-145.94;47.26;77287.72;5097229;28;20185;-70
2023/04/30 09:13:00;;;;;;;6.87;6.43;;;;;;;-145.94;47.79;77273.44;5097202;28;20193;-70
2023/04/30 09:15:28;;;;;;;6.23;6.03;;;;;;;-145.94;47.30;77246.94;5097345;28;20577;-69
2023/04/30 09:18:16;;;;;;;6.77;6.23;;;;;;;-145.94;46.17;77244.91;5097284;28;20216;-70
2023/04/30 09:20:54;;;;;;;8.13;7.27;;;;;;;-145.94;45.67;77263.25;5097574;28;20181;-70
2023/04/30 09:23:21;;;;;;;8.67;8.27;;;;;;;-145.94;46.35;77273.44;5097026;28;20205;-70
2023/04/30 09:25:48;;;;;;;7.33;7.03;;;;;;;-145.94;46.66;77257.13;5096872;28;20209;-70
2023/04/30 09:28:14;;;;;;;8.27;7.60;;;;;;;-145.94;45.70;77259.19;5096952;28;20582;-70
2023/04/30 09:30:41;;;;;;;7.40;7.20;;;;;;;-145.94;46.50;77230.63;5096858;28;20189;-70
2023/04/30 09:33:08;;;;;;;8.40;7.73;;;;;;;-145.94;45.92;77216.34;5096871;28;20188;-69
2023/04/30 09:35:40;;;;;;;8.57;7.73;;;;;;;-145.94;45.14;77216.34;5096831;28;20206;-70
2023/04/30 09:38:07;;;;;;;7.80;7.50;;;;;;;-145.94;45.90;77218.38;5096690;28;20186;-70
2023/04/30 09:40:34;;;;;;;7.97;7.40;;;;;;;-145.94;45.98;77226.53;5096844;28;20178;-70
2023/04/30 09:43:02;;;;;;;8.03;7.60;;;;;;;-145.94;45.56;77208.19;5096575;28;20265;-70
2023/04/30 09:45:48;;;;;;;7.37;6.93;;;;;;;-145.94;45.31;77224.50;5096911;28;20208;-71
2023/04/30 09:48:15;;;;;;;7.30;7.00;;;;;;;-145.94;45.76;77204.13;5096649;28;20204;-70
2023/04/30 09:50:44;;;;;;;6.83;6.53;;;;;;;-145.94;44.29;77195.97;5096957;28;20193;-71
2023/04/30 09:53:13;;;;;;;6.73;6.53;;;;;;;-145.94;44.78;77189.84;5096886;28;20186;-70
2023/04/30 09:55:44;;;;;;;6.03;5.93;;;;;;;-145.94;44.85;77173.53;5096855;28;20216;-70
2023/04/30 09:58:12;;;;;;;7.40;7.13;;;;;;;-145.94;43.91;77167.41;5096616;28;20174;-70
2023/04/30 10:00:38;;;;;;;7.30;6.47;;;;;;;-145.94;45.43;77138.84;5096768;28;20182;-70
2023/04/30 10:03:08;;;;;;;6.67;6.47;;;;;;;-145.94;44.51;77130.69;5096390;28;20182;-70
2023/04/30 10:05:45;;;;;;;6.03;5.80;;;;;;;-145.94;43.14;77130.69;5096025;28;20202;-71
2023/04/30 10:08:24;;;;;;;6.43;6.13;;;;;;;-145.94;44.10;77120.50;5096361;28;20177;-70
2023/04/30 10:11:00;;;;;;;6.43;6.13;;;;;;;-145.94;44.00;77104.19;5096703;28;20252;-70
2023/04/30 10:13:30;;;;;;;6.27;5.90;;;;;;;-145.94;43.97;77102.16;5096271;28;20261;-71
2023/04/30 10:16:06;;;;;;;5.53;5.40;;;;;;;-145.94;44.04;77083.78;5095849;28;20680;-71
2023/04/30 10:18:36;;;;;;;4.97;4.77;;;;;;;-145.94;42.58;77075.63;5096482;28;20223;-71
2023/04/30 10:21:09;;;;;;;4.80;4.67;;;;;;;-145.94;43.78;77079.72;5095999;28;20241;-70
2023/04/30 10:23:36;;;;;;;5.97;5.87;;;;;;;-145.94;43.42;77079.72;5096404;28;20178;-71
2023/04/30 10:26:03;;;;;;;6.33;5.80;;;;;;;-145.94;42.73;77057.28;5095981;28;20684;-71
2023/04/30 10:28:31;;;;;;;4.37;4.23;;;;;;;-145.94;42.54;77045.03;5095781;28;20216;-70
2023/04/30 10:30:57;;;;;;;4.90;4.70;;;;;;;-145.94;42.26;77038.94;5095647;28;20225;-71
2023/04/30 10:33:41;;;;;;;4.10;4.00;;;;;;;-145.94;43.13;77016.50;5096455;28;20190;-71
2023/04/30 10:36:13;;;;;;;5.13;4.60;;;;;;;-145.94;42.73;77012.41;5095958;28;20700;-70
2023/04/30 10:38:40;;;;;;;4.93;4.83;;;;;;;-145.94;42.39;76994.06;5095781;28;20262;-71
2023/04/30 10:41:08;;;;;;;5.17;4.97;;;;;;;-145.94;41.55;77022.63;5095667;28;20190;-71
2023/04/30 10:43:35;;;;;;;5.40;5.20;;;;;;;-145.94;42.53;77057.28;5095383;28;20196;-71
2023/04/30 10:46:02;;;;;;;4.90;4.90;;;;;;;-145.94;42.14;77047.09;5095290;28;20206;-70
2023/04/30 10:48:33;;;;;;;4.10;4.00;;;;;;;-145.94;43.84;77020.56;5095756;28;20298;-70
2023/04/30 10:51:00;;;;;;;5.43;5.33;;;;;;;-145.94;42.79;76989.97;5095636;28;20177;-71
2023/04/30 10:53:30;;;;;;;4.27;4.27;;;;;;;-145.94;42.42;76971.63;5095163;28;20181;-70
2023/04/30 10:55:59;;;;;;;3.63;3.60;;;;;;;-145.94;41.59;76961.44;5095210;28;20627;-70
2023/04/30 10:58:29;;;;;;;4.60;4.40;;;;;;;-145.94;42.68;76939.00;5095484;28;20575;-70
2023/04/30 11:01:11;;;;;;;5.20;4.90;;;;;;;-145.94;41.50;76928.81;5095290;28;20178;-70
2023/04/30 11:03:41;;;;;;;4.47;4.37;;;;;;;-145.94;41.45;76920.66;5095116;28;20178;-71
2023/04/30 11:06:14;;;;;;;4.40;4.30;;;;;;;-145.94;40.98;76918.63;5095475;28;20205;-70
2023/04/30 11:08:44;;;;;;;3.57;3.57;;;;;;;-145.94;40.66;76932.88;5095346;28;20739;-71
2023/04/30 11:11:16;;;;;;;3.67;3.67;;;;;;;-145.94;41.55;76900.25;5095429;28;20213;-70